sensor_id;sensor_type;location;lat;lon;timestamp;pressure;altitude;pressure_sealevel;temperature;humidity
30110;BME280;14965;50.660;13.226;2022-09-17T00:01:15;94020.88;;;6.68;94.67
30110;BME280;14965;50.660;13.226;2022-09-17T00:03:42;94012.00;;;6.77;94.12
30110;BME280;14965;50.660;13.226;2022-09-17T00:06:10;94018.94;;;6.81;94.41
30110;BME280;14965;50.660;13.226;2022-09-17T00:08:38;94011.81;;;6.84;94.36
30110;BME280;14965;50.660;13.226;2022-09-17T00:11:06;94004.59;;;6.90;94.64
30110;BME280;14965;50.660;13.226;2022-09-17T00:13:32;94017.88;;;6.91;94.76
30110;BME280;14965;50.660;13.226;2022-09-17T00:15:58;94009.97;;;6.93;94.68
30110;BME280;14965;50.660;13.226;2022-09-17T00:18:25;94009.56;;;6.95;94.06
30110;BME280;14965;50.660;13.226;2022-09-17T00:20:51;94009.09;;;6.96;94.46
30110;BME280;14965;50.660;13.226;2022-09-17T00:23:17;94017.16;;;7.04;93.75
30110;BME280;14965;50.660;13.226;2022-09-17T00:25:44;94010.88;;;7.03;93.65
30110;BME280;14965;50.660;13.226;2022-09-17T00:28:12;94011.88;;;7.09;93.84
30110;BME280;14965;50.660;13.226;2022-09-17T00:30:39;94025.94;;;7.11;93.74
30110;BME280;14965;50.660;13.226;2022-09-17T00:33:05;94020.78;;;7.13;93.35
30110;BME280;14965;50.660;13.226;2022-09-17T00:35:33;94017.25;;;7.13;93.41
30110;BME280;14965;50.660;13.226;2022-09-17T00:37:59;94007.41;;;7.15;93.32
30110;BME280;14965;50.660;13.226;2022-09-17T00:40:25;94007.72;;;7.17;92.82
30110;BME280;14965;50.660;13.226;2022-09-17T00:42:51;94009.59;;;7.20;93.55
30110;BME280;14965;50.660;13.226;2022-09-17T00:45:16;93999.59;;;7.27;92.75
30110;BME280;14965;50.660;13.226;2022-09-17T00:47:48;93999.84;;;7.32;92.66
30110;BME280;14965;50.660;13.226;2022-09-17T00:50:20;93996.06;;;7.26;92.19
30110;BME280;14965;50.660;13.226;2022-09-17T00:52:52;94006.50;;;7.31;92.22
30110;BME280;14965;50.660;13.226;2022-09-17T00:55:24;94001.69;;;7.35;92.87
30110;BME280;14965;50.660;13.226;2022-09-17T00:57:54;93996.19;;;7.35;92.51
30110;BME280;14965;50.660;13.226;2022-09-17T01:00:21;94002.22;;;7.30;91.98
30110;BME280;14965;50.660;13.226;2022-09-17T01:02:47;93998.28;;;7.31;92.19
30110;BME280;14965;50.660;13.226;2022-09-17T01:05:15;93990.38;;;7.33;92.45
30110;BME280;14965;50.660;13.226;2022-09-17T01:07:57;93988.09;;;7.32;91.44
30110;BME280;14965;50.660;13.226;2022-09-17T01:10:46;93981.38;;;7.33;91.75
30110;BME280;14965;50.660;13.226;2022-09-17T01:13:33;93986.53;;;7.31;91.83
30110;BME280;14965;50.660;13.226;2022-09-17T01:16:10;93977.75;;;7.36;91.61
30110;BME280;14965;50.660;13.226;2022-09-17T01:18:56;93986.97;;;7.42;91.60
30110;BME280;14965;50.660;13.226;2022-09-17T01:25:02;93988.59;;;7.39;91.06
30110;BME280;14965;50.660;13.226;2022-09-17T01:28:17;93991.03;;;7.37;90.99
30110;BME280;14965;50.660;13.226;2022-09-17T01:31:06;93991.25;;;7.43;91.51
30110;BME280;14965;50.660;13.226;2022-09-17T01:33:40;93994.75;;;7.43;91.33
30110;BME280;14965;50.660;13.226;2022-09-17T01:36:25;93991.25;;;7.43;89.91
30110;BME280;14965;50.660;13.226;2022-09-17T01:39:06;93992.78;;;7.44;90.53
30110;BME280;14965;50.660;13.226;2022-09-17T01:41:44;93997.41;;;7.47;90.16
30110;BME280;14965;50.660;13.226;2022-09-17T01:44:25;93991.50;;;7.48;90.29
30110;BME280;14965;50.660;13.226;2022-09-17T01:47:02;93999.59;;;7.52;90.42
30110;BME280;14965;50.660;13.226;2022-09-17T01:49:35;93995.31;;;7.51;89.93
30110;BME280;14965;50.660;13.226;2022-09-17T01:52:02;93986.75;;;7.49;89.75
30110;BME280;14965;50.660;13.226;2022-09-17T01:54:34;93985.84;;;7.52;89.68
30110;BME280;14965;50.660;13.226;2022-09-17T01:57:07;93984.22;;;7.55;90.27
30110;BME280;14965;50.660;13.226;2022-09-17T01:59:39;93987.41;;;7.53;89.99
30110;BME280;14965;50.660;13.226;2022-09-17T02:02:13;93986.84;;;7.58;90.61
30110;BME280;14965;50.660;13.226;2022-09-17T02:04:46;93996.97;;;7.61;90.51
30110;BME280;14965;50.660;13.226;2022-09-17T02:07:17;93993.47;;;7.61;90.09
30110;BME280;14965;50.660;13.226;2022-09-17T02:09:49;94000.03;;;7.63;89.80
30110;BME280;14965;50.660;13.226;2022-09-17T02:12:27;94001.25;;;7.62;89.78
30110;BME280;14965;50.660;13.226;2022-09-17T02:14:59;94007.19;;;7.61;89.82
30110;BME280;14965;50.660;13.226;2022-09-17T02:17:34;94010.38;;;7.59;90.37
30110;BME280;14965;50.660;13.226;2022-09-17T02:20:02;93997.84;;;7.58;90.35
30110;BME280;14965;50.660;13.226;2022-09-17T02:22:36;94001.38;;;7.59;90.62
30110;BME280;14965;50.660;13.226;2022-09-17T02:25:10;93998.63;;;7.59;90.43
30110;BME280;14965;50.660;13.226;2022-09-17T02:27:48;93999.50;;;7.56;90.83
30110;BME280;14965;50.660;13.226;2022-09-17T02:30:15;93997.50;;;7.56;91.00
30110;BME280;14965;50.660;13.226;2022-09-17T02:32:43;93994.75;;;7.56;90.97
30110;BME280;14965;50.660;13.226;2022-09-17T02:35:10;93999.59;;;7.52;90.90
30110;BME280;14965;50.660;13.226;2022-09-17T02:37:36;93993.56;;;7.57;91.54
30110;BME280;14965;50.660;13.226;2022-09-17T02:40:02;93990.94;;;7.54;91.20
30110;BME280;14965;50.660;13.226;2022-09-17T02:42:40;93986.31;;;7.51;91.35
30110;BME280;14965;50.660;13.226;2022-09-17T02:45:22;93978.63;;;7.45;91.97
30110;BME280;14965;50.660;13.226;2022-09-17T02:48:08;93996.44;;;7.54;91.86
30110;BME280;14965;50.660;13.226;2022-09-17T02:50:58;93983.75;;;7.56;91.89
30110;BME280;14965;50.660;13.226;2022-09-17T02:53:38;93985.19;;;7.48;92.42
30110;BME280;14965;50.660;13.226;2022-09-17T02:56:20;93982.03;;;7.49;92.44
30110;BME280;14965;50.660;13.226;2022-09-17T02:58:55;93984.13;;;7.45;93.01
30110;BME280;14965;50.660;13.226;2022-09-17T03:01:41;93991.34;;;7.52;93.40
30110;BME280;14965;50.660;13.226;2022-09-17T03:04:15;93980.06;;;7.50;94.20
30110;BME280;14965;50.660;13.226;2022-09-17T03:06:45;93993.88;;;7.46;93.81
30110;BME280;14965;50.660;13.226;2022-09-17T03:09:12;93982.44;;;7.48;94.11
30110;BME280;14965;50.660;13.226;2022-09-17T03:11:38;93984.88;;;7.46;94.70
30110;BME280;14965;50.660;13.226;2022-09-17T03:14:04;93979.28;;;7.49;95.46
30110;BME280;14965;50.660;13.226;2022-09-17T03:16:30;93983.09;;;7.52;95.37
30110;BME280;14965;50.660;13.226;2022-09-17T03:18:56;93983.44;;;7.54;95.48
30110;BME280;14965;50.660;13.226;2022-09-17T03:21:23;93985.44;;;7.54;95.74
30110;BME280;14965;50.660;13.226;2022-09-17T03:23:49;93992.78;;;7.44;96.22
30110;BME280;14965;50.660;13.226;2022-09-17T03:26:15;93986.41;;;7.47;96.76
30110;BME280;14965;50.660;13.226;2022-09-17T03:28:41;93996.97;;;7.36;97.65
30110;BME280;14965;50.660;13.226;2022-09-17T03:31:07;94004.56;;;7.32;98.49
30110;BME280;14965;50.660;13.226;2022-09-17T03:33:33;94000.16;;;7.34;99.67
30110;BME280;14965;50.660;13.226;2022-09-17T03:35:59;93997.50;;;7.31;99.67
30110;BME280;14965;50.660;13.226;2022-09-17T03:38:26;93999.72;;;7.36;100.00
30110;BME280;14965;50.660;13.226;2022-09-17T03:40:59;94002.47;;;7.36;100.00
30110;BME280;14965;50.660;13.226;2022-09-17T03:43:25;93998.72;;;7.30;100.00
30110;BME280;14965;50.660;13.226;2022-09-17T03:45:51;93994.09;;;7.27;100.00
30110;BME280;14965;50.660;13.226;2022-09-17T03:48:17;93993.13;;;7.20;100.00
30110;BME280;14965;50.660;13.226;2022-09-17T03:50:43;93995.09;;;7.20;100.00
30110;BME280;14965;50.660;13.226;2022-09-17T03:53:08;93986.41;;;7.21;100.00
30110;BME280;14965;50.660;13.226;2022-09-17T03:55:38;93992.78;;;7.18;100.00
30110;BME280;14965;50.660;13.226;2022-09-17T03:58:04;93984.22;;;7.16;100.00
30110;BME280;14965;50.660;13.226;2022-09-17T04:00:30;93990.38;;;7.20;100.00
30110;BME280;14965;50.660;13.226;2022-09-17T04:02:56;93984.44;;;7.22;100.00
30110;BME280;14965;50.660;13.226;2022-09-17T04:05:22;93981.13;;;7.27;100.00
30110;BME280;14965;50.660;13.226;2022-09-17T04:07:48;93982.25;;;7.30;100.00
30110;BME280;14965;50.660;13.226;2022-09-17T04:10:14;93983.88;;;7.27;100.00
30110;BME280;14965;50.660;13.226;2022-09-17T04:12:41;93994.88;;;7.27;100.00
30110;BME280;14965;50.660;13.226;2022-09-17T04:15:08;93981.38;;;7.33;100.00
30110;BME280;14965;50.660;13.226;2022-09-17T04:17:34;93979.03;;;7.31;100.00
30110;BME280;14965;50.660;13.226;2022-09-17T04:20:00;93986.97;;;7.29;100.00
30110;BME280;14965;50.660;13.226;2022-09-17T04:22:26;93981.94;;;7.28;100.00
30110;BME280;14965;50.660;13.226;2022-09-17T04:24:52;93975.22;;;7.29;100.00
30110;BME280;14965;50.660;13.226;2022-09-17T04:27:18;93984.22;;;7.29;100.00
30110;BME280;14965;50.660;13.226;2022-09-17T04:29:45;93978.63;;;7.20;100.00
30110;BME280;14965;50.660;13.226;2022-09-17T04:32:11;93987.63;;;7.20;100.00
30110;BME280;14965;50.660;13.226;2022-09-17T04:34:36;93991.03;;;7.24;100.00
30110;BME280;14965;50.660;13.226;2022-09-17T04:37:02;93985.84;;;7.27;100.00
30110;BME280;14965;50.660;13.226;2022-09-17T04:39:28;93976.19;;;7.22;100.00
30110;BME280;14965;50.660;13.226;2022-09-17T04:41:54;93984.44;;;7.22;100.00
30110;BME280;14965;50.660;13.226;2022-09-17T04:44:20;93982.78;;;7.24;100.00
30110;BME280;14965;50.660;13.226;2022-09-17T04:46:47;93979.94;;;7.28;100.00
30110;BME280;14965;50.660;13.226;2022-09-17T04:49:13;93986.19;;;7.29;100.00
30110;BME280;14965;50.660;13.226;2022-09-17T04:51:39;93987.19;;;7.35;100.00
30110;BME280;14965;50.660;13.226;2022-09-17T04:54:05;93980.59;;;7.32;100.00
30110;BME280;14965;50.660;13.226;2022-09-17T04:56:31;93986.88;;;7.33;100.00
30110;BME280;14965;50.660;13.226;2022-09-17T04:58:57;93986.00;;;7.36;100.00
30110;BME280;14965;50.660;13.226;2022-09-17T05:01:22;93983.78;;;7.31;100.00
30110;BME280;14965;50.660;13.226;2022-09-17T05:03:50;93996.84;;;7.27;100.00
30110;BME280;14965;50.660;13.226;2022-09-17T05:06:15;93988.19;;;7.28;100.00
30110;BME280;14965;50.660;13.226;2022-09-17T05:08:41;93985.44;;;7.28;100.00
30110;BME280;14965;50.660;13.226;2022-09-17T05:11:07;93989.06;;;7.25;100.00
30110;BME280;14965;50.660;13.226;2022-09-17T05:13:34;93994.53;;;7.25;100.00
30110;BME280;14965;50.660;13.226;2022-09-17T05:16:00;93989.38;;;7.27;100.00
30110;BME280;14965;50.660;13.226;2022-09-17T05:18:26;93994.00;;;7.30;100.00
30110;BME280;14965;50.660;13.226;2022-09-17T05:20:53;94001.91;;;7.28;100.00
30110;BME280;14965;50.660;13.226;2022-09-17T05:23:19;93995.66;;;7.28;100.00
30110;BME280;14965;50.660;13.226;2022-09-17T05:25:45;93993.22;;;7.30;100.00
30110;BME280;14965;50.660;13.226;2022-09-17T05:28:11;93990.03;;;7.31;100.00
30110;BME280;14965;50.660;13.226;2022-09-17T05:30:36;93993.56;;;7.32;100.00
30110;BME280;14965;50.660;13.226;2022-09-17T05:33:05;93992.00;;;7.31;100.00
30110;BME280;14965;50.660;13.226;2022-09-17T05:35:32;93988.41;;;7.34;100.00
30110;BME280;14965;50.660;13.226;2022-09-17T05:38:03;93982.34;;;7.39;100.00
30110;BME280;14965;50.660;13.226;2022-09-17T05:40:30;93987.28;;;7.44;100.00
30110;BME280;14965;50.660;13.226;2022-09-17T05:42:57;93984.13;;;7.45;100.00
30110;BME280;14965;50.660;13.226;2022-09-17T05:45:23;93982.13;;;7.46;100.00
30110;BME280;14965;50.660;13.226;2022-09-17T05:47:54;93992.66;;;7.47;100.00
30110;BME280;14965;50.660;13.226;2022-09-17T05:50:20;93989.63;;;7.45;100.00
30110;BME280;14965;50.660;13.226;2022-09-17T05:52:46;93980.91;;;7.47;100.00
30110;BME280;14965;50.660;13.226;2022-09-17T05:55:13;93988.19;;;7.54;100.00
30110;BME280;14965;50.660;13.226;2022-09-17T05:57:39;93995.41;;;7.60;100.00
30110;BME280;14965;50.660;13.226;2022-09-17T06:00:06;93989.16;;;7.60;100.00
30110;BME280;14965;50.660;13.226;2022-09-17T06:02:32;93998.16;;;7.60;100.00
30110;BME280;14965;50.660;13.226;2022-09-17T06:04:58;93998.31;;;7.57;100.00
30110;BME280;14965;50.660;13.226;2022-09-17T06:07:24;93992.34;;;7.58;100.00
30110;BME280;14965;50.660;13.226;2022-09-17T06:09:49;93993.00;;;7.62;100.00
30110;BME280;14965;50.660;13.226;2022-09-17T06:12:16;93999.59;;;7.65;100.00
30110;BME280;14965;50.660;13.226;2022-09-17T06:14:42;94002.78;;;7.63;100.00
30110;BME280;14965;50.660;13.226;2022-09-17T06:17:08;93992.13;;;7.65;100.00
30110;BME280;14965;50.660;13.226;2022-09-17T06:19:34;93998.63;;;7.59;100.00
30110;BME280;14965;50.660;13.226;2022-09-17T06:22:00;94000.91;;;7.60;100.00
30110;BME280;14965;50.660;13.226;2022-09-17T06:24:26;94000.16;;;7.60;100.00
30110;BME280;14965;50.660;13.226;2022-09-17T06:26:51;94006.41;;;7.60;100.00
30110;BME280;14965;50.660;13.226;2022-09-17T06:29:19;93998.97;;;7.61;100.00
30110;BME280;14965;50.660;13.226;2022-09-17T06:31:47;93994.00;;;7.56;100.00
30110;BME280;14965;50.660;13.226;2022-09-17T06:34:14;93997.50;;;7.56;100.00
30110;BME280;14965;50.660;13.226;2022-09-17T06:36:40;93996.63;;;7.59;100.00
30110;BME280;14965;50.660;13.226;2022-09-17T06:39:06;93996.97;;;7.61;100.00
30110;BME280;14965;50.660;13.226;2022-09-17T06:41:32;93987.72;;;7.55;100.00
30110;BME280;14965;50.660;13.226;2022-09-17T06:43:58;93996.63;;;7.59;100.00
30110;BME280;14965;50.660;13.226;2022-09-17T06:46:26;93995.09;;;7.58;100.00
30110;BME280;14965;50.660;13.226;2022-09-17T06:48:52;93989.16;;;7.60;100.00
30110;BME280;14965;50.660;13.226;2022-09-17T06:51:17;93995.66;;;7.66;100.00
30110;BME280;14965;50.660;13.226;2022-09-17T06:53:43;93993.75;;;7.88;100.00
30110;BME280;14965;50.660;13.226;2022-09-17T06:56:09;93989.53;;;8.09;100.00
30110;BME280;14965;50.660;13.226;2022-09-17T06:58:35;93991.47;;;8.21;100.00
30110;BME280;14965;50.660;13.226;2022-09-17T07:01:03;93991.44;;;8.34;100.00
30110;BME280;14965;50.660;13.226;2022-09-17T07:03:31;93995.63;;;8.39;100.00
30110;BME280;14965;50.660;13.226;2022-09-17T07:05:58;93994.53;;;8.36;100.00
30110;BME280;14965;50.660;13.226;2022-09-17T07:08:24;93988.38;;;8.32;100.00
30110;BME280;14965;50.660;13.226;2022-09-17T07:10:50;93998.28;;;8.30;100.00
30110;BME280;14965;50.660;13.226;2022-09-17T07:13:19;93997.75;;;8.22;100.00
30110;BME280;14965;50.660;13.226;2022-09-17T07:15:52;94002.16;;;8.19;100.00
30110;BME280;14965;50.660;13.226;2022-09-17T07:18:18;94011.31;;;8.16;100.00
30110;BME280;14965;50.660;13.226;2022-09-17T07:20:52;94013.72;;;8.14;100.00
30110;BME280;14965;50.660;13.226;2022-09-17T07:23:17;94010.19;;;8.14;100.00
30110;BME280;14965;50.660;13.226;2022-09-17T07:25:43;94021.53;;;8.16;100.00
30110;BME280;14965;50.660;13.226;2022-09-17T07:28:09;94026.28;;;8.15;100.00
30110;BME280;14965;50.660;13.226;2022-09-17T07:30:35;94028.69;;;8.13;100.00
30110;BME280;14965;50.660;13.226;2022-09-17T07:33:01;94031.31;;;8.17;100.00
30110;BME280;14965;50.660;13.226;2022-09-17T07:35:26;94045.72;;;8.21;100.00
30110;BME280;14965;50.660;13.226;2022-09-17T07:37:54;94057.72;;;8.14;100.00
30110;BME280;14965;50.660;13.226;2022-09-17T07:40:19;94063.88;;;8.18;100.00
30110;BME280;14965;50.660;13.226;2022-09-17T07:42:45;94068.28;;;8.16;100.00
30110;BME280;14965;50.660;13.226;2022-09-17T07:45:11;94076.66;;;8.12;100.00
30110;BME280;14965;50.660;13.226;2022-09-17T07:47:38;94086.78;;;8.15;100.00
30110;BME280;14965;50.660;13.226;2022-09-17T07:50:06;94087.09;;;8.17;100.00
30110;BME280;14965;50.660;13.226;2022-09-17T07:52:32;94086.31;;;8.17;100.00
30110;BME280;14965;50.660;13.226;2022-09-17T07:54:59;94085.00;;;8.21;100.00
30110;BME280;14965;50.660;13.226;2022-09-17T07:57:24;94083.00;;;8.22;100.00
30110;BME280;14965;50.660;13.226;2022-09-17T07:59:50;94088.28;;;8.29;100.00
30110;BME280;14965;50.660;13.226;2022-09-17T08:02:16;94085.97;;;8.28;100.00
30110;BME280;14965;50.660;13.226;2022-09-17T08:04:42;94085.53;;;8.29;100.00
30110;BME280;14965;50.660;13.226;2022-09-17T08:07:10;94087.84;;;8.31;100.00
30110;BME280;14965;50.660;13.226;2022-09-17T08:09:36;94089.06;;;8.30;100.00
30110;BME280;14965;50.660;13.226;2022-09-17T08:12:04;94102.16;;;8.26;100.00
30110;BME280;14965;50.660;13.226;2022-09-17T08:14:30;94102.81;;;8.30;100.00
30110;BME280;14965;50.660;13.226;2022-09-17T08:16:56;94113.47;;;8.28;100.00
30110;BME280;14965;50.660;13.226;2022-09-17T08:19:21;94120.41;;;8.32;100.00
30110;BME280;14965;50.660;13.226;2022-09-17T08:21:47;94114.91;;;8.32;100.00
30110;BME280;14965;50.660;13.226;2022-09-17T08:24:13;94112.03;;;8.36;100.00
30110;BME280;14965;50.660;13.226;2022-09-17T08:26:39;94119.22;;;8.33;100.00
30110;BME280;14965;50.660;13.226;2022-09-17T08:29:06;94121.09;;;8.36;100.00
30110;BME280;14965;50.660;13.226;2022-09-17T08:31:32;94122.84;;;8.43;100.00
30110;BME280;14965;50.660;13.226;2022-09-17T08:33:58;94122.41;;;8.44;100.00
30110;BME280;14965;50.660;13.226;2022-09-17T08:36:24;94125.16;;;8.44;100.00
30110;BME280;14965;50.660;13.226;2022-09-17T08:38:52;94124.06;;;8.42;100.00
30110;BME280;14965;50.660;13.226;2022-09-17T08:41:26;94123.19;;;8.45;100.00
30110;BME280;14965;50.660;13.226;2022-09-17T08:44:12;94133.28;;;8.48;100.00
30110;BME280;14965;50.660;13.226;2022-09-17T08:46:45;94132.41;;;8.51;100.00
30110;BME280;14965;50.660;13.226;2022-09-17T08:49:24;94122.41;;;8.57;100.00
30110;BME280;14965;50.660;13.226;2022-09-17T08:55:24;94120.94;;;8.65;100.00
30110;BME280;14965;50.660;13.226;2022-09-17T08:58:07;94127.78;;;8.95;100.00
30110;BME280;14965;50.660;13.226;2022-09-17T09:00:49;94118.47;;;9.37;100.00
30110;BME280;14965;50.660;13.226;2022-09-17T09:03:31;94123.38;;;9.64;100.00
30110;BME280;14965;50.660;13.226;2022-09-17T09:06:05;94117.00;;;9.76;100.00
30110;BME280;14965;50.660;13.226;2022-09-17T09:08:36;94113.94;;;9.74;99.79
30110;BME280;14965;50.660;13.226;2022-09-17T09:11:11;94118.31;;;9.62;99.14
30110;BME280;14965;50.660;13.226;2022-09-17T09:13:42;94119.41;;;9.43;99.77
30110;BME280;14965;50.660;13.226;2022-09-17T09:16:15;94113.59;;;9.41;99.87
30110;BME280;14965;50.660;13.226;2022-09-17T09:18:42;94126.03;;;9.45;100.00
30110;BME280;14965;50.660;13.226;2022-09-17T09:21:24;94127.56;;;9.46;99.86
30110;BME280;14965;50.660;13.226;2022-09-17T09:23:54;94137.03;;;9.67;99.05
30110;BME280;14965;50.660;13.226;2022-09-17T09:26:23;94132.88;;;9.94;99.69
30110;BME280;14965;50.660;13.226;2022-09-17T09:29:10;94130.53;;;9.83;97.79
30110;BME280;14965;50.660;13.226;2022-09-17T09:31:59;94126.31;;;9.69;98.67
30110;BME280;14965;50.660;13.226;2022-09-17T09:34:31;94124.97;;;9.52;98.34
30110;BME280;14965;50.660;13.226;2022-09-17T09:37:10;94124.28;;;9.61;99.70
30110;BME280;14965;50.660;13.226;2022-09-17T09:39:38;94128.25;;;9.60;99.34
30110;BME280;14965;50.660;13.226;2022-09-17T09:42:15;94128.50;;;9.75;99.65
30110;BME280;14965;50.660;13.226;2022-09-17T09:44:44;94129.09;;;10.01;100.00
30110;BME280;14965;50.660;13.226;2022-09-17T09:47:22;94128.16;;;10.26;100.00
30110;BME280;14965;50.660;13.226;2022-09-17T09:50:10;94126.94;;;10.36;99.07
30110;BME280;14965;50.660;13.226;2022-09-17T09:52:57;94134.31;;;10.30;97.71
30110;BME280;14965;50.660;13.226;2022-09-17T09:55:57;94134.97;;;10.12;97.28
30110;BME280;14965;50.660;13.226;2022-09-17T09:58:33;94128.09;;;10.16;98.76
30110;BME280;14965;50.660;13.226;2022-09-17T10:00:59;94125.78;;;10.46;100.00
30110;BME280;14965;50.660;13.226;2022-09-17T10:03:30;94115.09;;;10.76;99.25
30110;BME280;14965;50.660;13.226;2022-09-17T10:05:58;94119.09;;;10.75;95.32
30110;BME280;14965;50.660;13.226;2022-09-17T10:08:26;94116.31;;;10.75;93.75
30110;BME280;14965;50.660;13.226;2022-09-17T10:10:55;94118.59;;;10.67;93.77
30110;BME280;14965;50.660;13.226;2022-09-17T10:13:21;94119.22;;;10.62;94.08
30110;BME280;14965;50.660;13.226;2022-09-17T10:15:47;94129.56;;;10.39;92.60
30110;BME280;14965;50.660;13.226;2022-09-17T10:18:18;94127.59;;;10.09;93.59
30110;BME280;14965;50.660;13.226;2022-09-17T10:20:56;94137.88;;;10.08;95.73
30110;BME280;14965;50.660;13.226;2022-09-17T10:23:25;94134.47;;;10.35;97.53
30110;BME280;14965;50.660;13.226;2022-09-17T10:25:53;94131.81;;;10.72;97.02
30110;BME280;14965;50.660;13.226;2022-09-17T10:28:43;94132.44;;;10.85;94.06
30110;BME280;14965;50.660;13.226;2022-09-17T10:31:10;94130.28;;;10.71;90.53
30110;BME280;14965;50.660;13.226;2022-09-17T10:33:50;94137.44;;;10.59;91.43
30110;BME280;14965;50.660;13.226;2022-09-17T10:36:37;94143.75;;;10.60;92.00
30110;BME280;14965;50.660;13.226;2022-09-17T10:39:26;94132.06;;;10.46;89.12
30110;BME280;14965;50.660;13.226;2022-09-17T10:41:54;94135.56;;;10.47;90.22
30110;BME280;14965;50.660;13.226;2022-09-17T10:44:23;94144.50;;;10.60;90.74
30110;BME280;14965;50.660;13.226;2022-09-17T10:46:50;94137.47;;;10.78;91.70
30110;BME280;14965;50.660;13.226;2022-09-17T10:49:33;94141.34;;;10.89;91.81
30110;BME280;14965;50.660;13.226;2022-09-17T10:52:23;94144.56;;;10.79;87.39
30110;BME280;14965;50.660;13.226;2022-09-17T10:55:17;94142.69;;;10.66;87.99
30110;BME280;14965;50.660;13.226;2022-09-17T10:58:12;94132.34;;;10.48;89.57
30110;BME280;14965;50.660;13.226;2022-09-17T11:01:01;94144.00;;;10.12;89.18
30110;BME280;14965;50.660;13.226;2022-09-17T11:03:50;94137.88;;;10.08;91.08
30110;BME280;14965;50.660;13.226;2022-09-17T11:07:03;94136.66;;;10.18;91.31
30110;BME280;14965;50.660;13.226;2022-09-17T11:09:50;94137.66;;;10.25;91.52
30110;BME280;14965;50.660;13.226;2022-09-17T11:12:36;94128.81;;;10.39;90.42
30110;BME280;14965;50.660;13.226;2022-09-17T11:15:19;94134.78;;;10.37;90.03
30110;BME280;14965;50.660;13.226;2022-09-17T11:18:11;94140.44;;;10.34;91.15
30110;BME280;14965;50.660;13.226;2022-09-17T11:20:58;94141.94;;;10.26;89.23
30110;BME280;14965;50.660;13.226;2022-09-17T11:23:52;94142.16;;;10.09;87.66
30110;BME280;14965;50.660;13.226;2022-09-17T11:26:34;94151.03;;;10.04;88.54
30110;BME280;14965;50.660;13.226;2022-09-17T11:29:22;94145.78;;;9.97;88.94
30110;BME280;14965;50.660;13.226;2022-09-17T11:32:02;94142.50;;;9.89;89.48
30110;BME280;14965;50.660;13.226;2022-09-17T11:34:35;94147.59;;;9.91;89.74
30110;BME280;14965;50.660;13.226;2022-09-17T11:37:09;94148.91;;;10.08;89.73
30110;BME280;14965;50.660;13.226;2022-09-17T11:39:46;94153.56;;;10.20;89.78
30110;BME280;14965;50.660;13.226;2022-09-17T11:42:22;94147.88;;;10.24;89.31
30110;BME280;14965;50.660;13.226;2022-09-17T11:44:54;94143.38;;;10.39;90.01
30110;BME280;14965;50.660;13.226;2022-09-17T11:47:28;94151.22;;;10.41;89.17
30110;BME280;14965;50.660;13.226;2022-09-17T11:50:01;94147.41;;;10.16;87.84
30110;BME280;14965;50.660;13.226;2022-09-17T11:52:37;94156.50;;;9.73;87.96
30110;BME280;14965;50.660;13.226;2022-09-17T11:55:17;94154.81;;;9.66;89.95
30110;BME280;14965;50.660;13.226;2022-09-17T11:57:51;94140.72;;;9.73;91.22
30110;BME280;14965;50.660;13.226;2022-09-17T12:00:20;94143.91;;;9.94;92.77
30110;BME280;14965;50.660;13.226;2022-09-17T12:02:52;94143.88;;;10.16;92.82
30110;BME280;14965;50.660;13.226;2022-09-17T12:05:27;94145.38;;;10.39;92.63
30110;BME280;14965;50.660;13.226;2022-09-17T12:08:05;94130.69;;;10.60;93.99
30110;BME280;14965;50.660;13.226;2022-09-17T12:10:42;94129.97;;;10.78;94.36
30110;BME280;14965;50.660;13.226;2022-09-17T12:13:25;94128.00;;;10.88;92.34
30110;BME280;14965;50.660;13.226;2022-09-17T12:16:09;94130.16;;;10.93;92.84
30110;BME280;14965;50.660;13.226;2022-09-17T12:18:55;94127.38;;;10.93;91.26
30110;BME280;14965;50.660;13.226;2022-09-17T12:21:28;94123.38;;;10.94;90.78
30110;BME280;14965;50.660;13.226;2022-09-17T12:24:03;94130.75;;;10.88;90.04
30110;BME280;14965;50.660;13.226;2022-09-17T12:27:03;94122.91;;;10.77;90.29
30110;BME280;14965;50.660;13.226;2022-09-17T12:30:06;94121.69;;;10.78;89.93
30110;BME280;14965;50.660;13.226;2022-09-17T12:33:06;94114.91;;;10.61;88.93
30110;BME280;14965;50.660;13.226;2022-09-17T12:36:02;94114.16;;;10.69;89.54
30110;BME280;14965;50.660;13.226;2022-09-17T12:38:57;94106.19;;;10.81;87.86
30110;BME280;14965;50.660;13.226;2022-09-17T12:41:32;94099.59;;;11.06;88.89
30110;BME280;14965;50.660;13.226;2022-09-17T12:44:24;94097.31;;;11.22;87.52
30110;BME280;14965;50.660;13.226;2022-09-17T12:47:17;94096.69;;;11.18;85.27
30110;BME280;14965;50.660;13.226;2022-09-17T12:50:04;94101.13;;;11.07;84.90
30110;BME280;14965;50.660;13.226;2022-09-17T12:52:46;94099.16;;;10.89;84.58
30110;BME280;14965;50.660;13.226;2022-09-17T12:55:36;94100.19;;;10.82;84.56
30110;BME280;14965;50.660;13.226;2022-09-17T12:58:18;94102.03;;;10.76;85.13
30110;BME280;14965;50.660;13.226;2022-09-17T13:00:54;94091.75;;;10.77;85.25
30110;BME280;14965;50.660;13.226;2022-09-17T13:03:32;94093.47;;;10.92;84.29
30110;BME280;14965;50.660;13.226;2022-09-17T13:06:40;94104.38;;;10.87;82.58
30110;BME280;14965;50.660;13.226;2022-09-17T13:09:58;94108.63;;;10.69;83.61
30110;BME280;14965;50.660;13.226;2022-09-17T13:12:38;94095.91;;;10.63;84.04
30110;BME280;14965;50.660;13.226;2022-09-17T13:15:29;94100.66;;;10.62;84.37
30110;BME280;14965;50.660;13.226;2022-09-17T13:18:10;94099.13;;;10.70;83.61
30110;BME280;14965;50.660;13.226;2022-09-17T13:20:50;94104.22;;;11.00;82.96
30110;BME280;14965;50.660;13.226;2022-09-17T13:23:31;94114.03;;;11.10;83.84
30110;BME280;14965;50.660;13.226;2022-09-17T13:25:57;94111.44;;;10.88;76.12
30110;BME280;14965;50.660;13.226;2022-09-17T13:28:40;94115.03;;;10.48;72.96